Time;durP1;ratioP1;P1;durP2;ratioP2;P2;SDS_P1;SDS_P2;PMS_P1;PMS_P2;Temp;Humidity;BMP_temperature;BMP_pressure;BME280_temperature;BME280_humidity;BME280_pressure;Samples;Min_cycle;Max_cycle;Signal;HPM_P1;HPM_P2
2021/07/01 00:00:13;;;;;;;21.43;14.10;;;15.90;99.90;;;;;;6120757;23;20602;-66
2021/07/01 00:02:38;;;;;;;19.73;13.50;;;15.80;99.90;;;;;;6098313;23;20170;-66
2021/07/01 00:05:07;;;;;;;20.77;14.23;;;15.80;99.90;;;;;;6107325;23;20392;-66
2021/07/01 00:07:32;;;;;;;20.83;13.32;;;15.80;99.90;;;;;;6107343;23;20234;-66
2021/07/01 00:09:58;;;;;;;24.97;13.90;;;15.80;99.90;;;;;;6107041;23;20553;-65
2021/07/01 00:12:23;;;;;;;21.83;14.27;;;15.90;99.90;;;;;;6120443;23;20164;-64
2021/07/01 00:14:49;;;;;;;18.17;13.10;;;15.90;99.90;;;;;;6107020;23;20162;-64
2021/07/01 00:17:15;;;;;;;16.73;13.63;;;16.00;99.90;;;;;;6106926;23;20156;-64
2021/07/01 00:19:40;;;;;;;22.87;14.10;;;15.90;99.90;;;;;;6107084;23;20151;-65
2021/07/01 00:22:06;;;;;;;19.80;11.90;;;16.00;99.90;;;;;;6107028;23;20514;-63
2021/07/01 00:24:31;;;;;;;19.30;13.63;;;16.00;99.90;;;;;;6107121;23;20229;-65
2021/07/01 00:26:57;;;;;;;15.27;12.20;;;16.10;99.90;;;;;;6106800;23;20227;-65
2021/07/01 00:29:22;;;;;;;18.60;13.23;;;16.30;99.90;;;;;;6106877;23;20159;-65
2021/07/01 00:31:48;;;;;;;16.63;12.27;;;16.30;99.90;;;;;;6107097;23;20182;-65
2021/07/01 00:34:14;;;;;;;13.70;10.43;;;16.20;99.90;;;;;;6097564;23;20626;-65
2021/07/01 00:36:40;;;;;;;13.83;11.13;;;16.10;99.90;;;;;;6107006;23;20530;-64
2021/07/01 00:39:06;;;;;;;11.07;9.97;;;15.90;99.90;;;;;;6106927;23;20160;-64
2021/07/01 00:41:32;;;;;;;15.80;11.37;;;15.90;99.90;;;;;;6106885;23;20159;-64
2021/07/01 00:43:57;;;;;;;14.33;9.73;;;15.90;99.90;;;;;;6097497;23;20402;-64
2021/07/01 00:46:23;;;;;;;13.43;10.80;;;16.00;99.90;;;;;;6106960;23;20397;-65
2021/07/01 00:48:48;;;;;;;13.87;10.00;;;16.00;99.90;;;;;;6096871;23;20650;-66
2021/07/01 00:51:14;;;;;;;11.80;10.60;;;15.80;99.90;;;;;;6108918;23;20159;-64
2021/07/01 00:53:40;;;;;;;10.67;9.53;;;15.80;99.90;;;;;;6099163;23;20244;-65
2021/07/01 00:56:08;;;;;;;11.80;9.10;;;15.80;99.90;;;;;;6108698;23;20160;-66
2021/07/01 00:58:34;;;;;;;11.25;8.55;;;15.90;99.90;;;;;;6121975;23;20396;-66
2021/07/01 01:01:04;;;;;;;10.93;9.60;;;15.90;99.90;;;;;;6099412;23;20164;-66
2021/07/01 01:03:32;;;;;;;15.57;9.40;;;15.90;99.90;;;;;;6108673;23;20368;-63
2021/07/01 01:05:58;;;;;;;9.37;8.37;;;15.80;99.90;;;;;;6098782;23;20238;-63
2021/07/01 01:08:23;;;;;;;11.40;9.30;;;15.80;99.90;;;;;;6108310;23;20434;-63
2021/07/01 01:10:49;;;;;;;13.37;9.13;;;15.90;99.90;;;;;;6108418;23;20405;-67
2021/07/01 01:13:25;;;;;;;10.67;8.37;;;15.90;99.90;;;;;;6108417;23;20180;-66
2021/07/01 01:15:53;;;;;;;10.82;8.75;;;16.00;99.90;;;;;;6100193;23;20383;-65
2021/07/01 01:18:19;;;;;;;10.80;8.40;;;16.10;99.90;;;;;;6122466;23;20159;-64
2021/07/01 01:20:53;;;;;;;11.93;7.93;;;16.10;99.90;;;;;;6109507;23;20399;-67
2021/07/01 01:23:19;;;;;;;10.50;8.00;;;16.10;99.90;;;;;;6108800;23;20148;-64
2021/07/01 01:25:48;;;;;;;12.20;7.73;;;16.10;99.90;;;;;;6108432;23;20441;-63
2021/07/01 01:28:14;;;;;;;9.27;7.13;;;16.10;99.90;;;;;;6098765;23;20399;-66
2021/07/01 01:30:40;;;;;;;12.00;7.70;;;16.10;99.90;;;;;;6108568;23;20654;-65
2021/07/01 01:33:07;;;;;;;10.47;7.20;;;16.00;99.90;;;;;;6108493;23;20766;-64
2021/07/01 01:35:33;;;;;;;10.20;8.03;;;15.90;99.90;;;;;;6098578;23;20388;-64
2021/07/01 01:37:59;;;;;;;9.25;7.45;;;15.90;99.90;;;;;;6107421;23;20388;-64
2021/07/01 01:40:24;;;;;;;9.90;7.33;;;15.90;99.90;;;;;;6108411;23;20246;-63
2021/07/01 01:42:50;;;;;;;9.37;7.00;;;16.00;99.90;;;;;;6121986;23;20222;-64
2021/07/01 01:45:15;;;;;;;9.17;6.50;;;16.00;99.90;;;;;;6121857;23;20487;-63
2021/07/01 01:47:48;;;;;;;9.60;6.63;;;15.90;99.90;;;;;;6108291;23;20176;-66
2021/07/01 01:50:22;;;;;;;8.83;6.70;;;15.90;99.90;;;;;;6108324;23;20171;-64
2021/07/01 01:52:49;;;;;;;10.90;7.22;;;16.00;99.90;;;;;;6098843;23;20419;-65
2021/07/01 01:55:15;;;;;;;10.13;7.17;;;15.90;99.90;;;;;;6108480;23;20572;-63
2021/07/01 01:57:46;;;;;;;11.57;7.40;;;15.90;99.90;;;;;;6108495;23;20414;-66
2021/07/01 02:00:14;;;;;;;10.17;7.20;;;16.00;99.90;;;;;;6107807;23;20870;-63
2021/07/01 02:02:40;;;;;;;9.40;7.00;;;16.00;99.90;;;;;;6121630;23;20400;-63
2021/07/01 02:05:10;;;;;;;9.80;7.20;;;15.90;99.90;;;;;;6108227;23;20406;-65
2021/07/01 02:07:36;;;;;;;8.35;6.18;;;16.00;99.90;;;;;;6108178;23;20462;-65
2021/07/01 02:10:04;;;;;;;12.10;8.20;;;15.90;99.90;;;;;;6108029;23;20244;-65
2021/07/01 02:12:30;;;;;;;12.00;7.87;;;15.90;99.90;;;;;;6121882;23;20850;-64
2021/07/01 02:14:57;;;;;;;9.67;7.17;;;15.90;99.90;;;;;;6107878;23;20398;-64
2021/07/01 02:17:22;;;;;;;8.40;6.43;;;15.80;99.90;;;;;;6108361;23;20387;-65
2021/07/01 02:19:48;;;;;;;12.60;7.77;;;15.70;99.90;;;;;;6108101;23;20454;-66
2021/07/01 02:22:14;;;;;;;9.10;6.83;;;15.70;99.90;;;;;;6108319;23;20462;-66
2021/07/01 02:24:40;;;;;;;10.33;7.47;;;15.70;99.90;;;;;;6108126;23;20183;-66
2021/07/01 02:27:06;;;;;;;10.00;7.90;;;15.80;99.90;;;;;;6121260;23;20325;-66
2021/07/01 02:29:32;;;;;;;11.67;7.50;;;15.80;99.90;;;;;;6106983;23;20399;-67
2021/07/01 02:31:57;;;;;;;10.23;7.77;;;15.90;99.90;;;;;;6107190;23;20395;-66
2021/07/01 02:34:23;;;;;;;11.20;7.80;;;15.90;99.90;;;;;;6095658;23;20199;-66
2021/07/01 02:36:48;;;;;;;13.57;8.00;;;15.80;99.90;;;;;;6106647;23;20156;-66
2021/07/01 02:39:14;;;;;;;11.13;7.93;;;15.80;99.90;;;;;;6106394;23;20190;-66
2021/07/01 02:41:39;;;;;;;12.20;8.90;;;15.90;99.90;;;;;;6106592;23;20262;-67
2021/07/01 02:44:05;;;;;;;11.63;8.43;;;15.90;99.90;;;;;;6107017;23;20168;-66
2021/07/01 02:46:32;;;;;;;13.30;8.55;;;15.90;99.90;;;;;;6087843;23;20206;-65
2021/07/01 02:48:58;;;;;;;12.77;8.10;;;15.90;99.90;;;;;;6166842;23;20494;-66
2021/07/01 02:51:23;;;;;;;12.83;7.57;;;15.90;99.90;;;;;;6167153;23;20162;-65
2021/07/01 02:53:49;;;;;;;13.10;7.47;;;15.90;99.90;;;;;;6130757;23;20261;-64
2021/07/01 02:56:16;;;;;;;12.20;7.80;;;15.80;99.90;;;;;;6166446;23;20464;-64
2021/07/01 02:58:42;;;;;;;9.40;7.53;;;15.90;99.90;;;;;;6166319;23;20441;-64
2021/07/01 03:01:07;;;;;;;11.60;7.97;;;15.90;99.90;;;;;;6166530;23;20456;-67
2021/07/01 03:03:33;;;;;;;10.03;8.07;;;16.00;99.90;;;;;;6131498;23;20205;-67
2021/07/01 03:05:58;;;;;;;10.73;7.93;;;15.90;99.90;;;;;;6167181;23;20158;-67
2021/07/01 03:08:24;;;;;;;10.53;7.60;;;16.00;99.90;;;;;;6166385;23;20228;-68
2021/07/01 03:10:50;;;;;;;15.63;7.70;;;16.00;99.90;;;;;;6130678;23;20244;-68
2021/07/01 03:13:16;;;;;;;12.30;7.33;;;15.80;99.90;;;;;;6157077;23;20938;-67
2021/07/01 03:15:42;;;;;;;8.50;4.97;;;15.80;99.90;;;;;;6166380;23;20579;-65
2021/07/01 03:18:08;;;;;;;8.93;5.20;;;15.80;99.90;;;;;;6166072;23;20378;-64
2021/07/01 03:20:34;;;;;;;9.30;4.70;;;15.90;99.90;;;;;;6166407;23;20497;-65
2021/07/01 03:23:02;;;;;;;4.90;3.63;;;16.00;99.90;;;;;;6166299;23;20169;-65
2021/07/01 03:25:29;;;;;;;9.60;4.68;;;16.10;99.90;;;;;;6156330;23;20597;-64
2021/07/01 03:27:55;;;;;;;5.73;3.50;;;15.90;99.90;;;;;;6130510;23;20159;-64
2021/07/01 03:30:21;;;;;;;5.63;4.27;;;15.90;99.90;;;;;;6156518;23;20401;-64
2021/07/01 03:32:47;;;;;;;5.30;3.90;;;16.10;99.90;;;;;;6166087;23;20737;-65
2021/07/01 03:35:14;;;;;;;4.70;3.80;;;16.20;99.90;;;;;;6166377;23;20201;-65
2021/07/01 03:37:40;;;;;;;5.30;3.80;;;16.30;99.90;;;;;;6166113;23;20389;-65
2021/07/01 03:40:10;;;;;;;5.63;3.30;;;16.30;99.90;;;;;;6166079;23;20722;-64
2021/07/01 03:42:36;;;;;;;8.57;4.73;;;16.30;99.90;;;;;;6156604;23;20389;-65
2021/07/01 03:45:03;;;;;;;7.90;5.47;;;16.20;99.90;;;;;;6166169;23;20382;-67
2021/07/01 03:47:28;;;;;;;10.73;5.17;;;16.20;99.90;;;;;;6165881;23;20415;-67
2021/07/01 03:49:54;;;;;;;7.47;5.13;;;16.20;99.90;;;;;;6166259;23;20480;-68
2021/07/01 03:52:19;;;;;;;7.90;5.87;;;16.40;99.90;;;;;;6166179;23;20166;-68
2021/07/01 03:54:45;;;;;;;8.37;6.13;;;16.40;99.90;;;;;;6166488;23;20453;-67
2021/07/01 03:57:10;;;;;;;7.47;6.03;;;16.20;99.90;;;;;;6166247;23;20162;-67
2021/07/01 03:59:36;;;;;;;8.57;6.33;;;16.20;99.90;;;;;;6166258;23;20156;-67
2021/07/01 04:02:02;;;;;;;7.80;5.33;;;16.20;99.90;;;;;;6165464;23;20157;-67
2021/07/01 04:04:27;;;;;;;9.40;6.37;;;16.00;99.90;;;;;;6166538;23;20158;-67
2021/07/01 04:06:53;;;;;;;8.67;5.80;;;16.00;99.90;;;;;;6166254;23;20225;-67
2021/07/01 04:09:19;;;;;;;8.30;6.30;;;15.90;99.90;;;;;;6166286;23;20168;-67
2021/07/01 04:11:44;;;;;;;9.93;6.47;;;16.00;99.90;;;;;;6166647;23;20234;-67
2021/07/01 04:14:10;;;;;;;9.60;5.77;;;16.00;99.90;;;;;;6157181;23;20593;-67
2021/07/01 04:16:35;;;;;;;8.07;5.60;;;16.00;99.90;;;;;;6166623;23;20593;-67
2021/07/01 04:19:01;;;;;;;7.37;5.67;;;16.00;99.90;;;;;;6166458;23;20186;-68
2021/07/01 04:21:27;;;;;;;6.03;5.10;;;16.00;99.90;;;;;;6166573;23;20154;-67
2021/07/01 04:23:55;;;;;;;7.77;5.47;;;15.90;99.90;;;;;;6157566;23;20648;-68
2021/07/01 04:26:20;;;;;;;7.00;5.50;;;16.00;99.90;;;;;;6168108;23;20839;-67
2021/07/01 04:28:46;;;;;;;9.00;5.73;;;16.10;99.90;;;;;;6168173;23;20395;-67
2021/07/01 04:31:12;;;;;;;6.87;4.80;;;16.20;99.90;;;;;;6158202;23;20165;-68
2021/07/01 04:33:37;;;;;;;5.97;4.53;;;16.10;99.90;;;;;;6168376;23;20196;-67
2021/07/01 04:36:03;;;;;;;5.90;5.00;;;16.30;99.90;;;;;;6168456;23;20154;-67
2021/07/01 04:38:29;;;;;;;6.37;5.00;;;16.40;99.90;;;;;;6158167;23;20162;-67
2021/07/01 04:40:55;;;;;;;4.97;4.20;;;16.40;99.90;;;;;;6168299;23;20452;-68
2021/07/01 04:43:21;;;;;;;8.33;4.67;;;16.20;99.90;;;;;;6168143;23;20557;-66
2021/07/01 04:45:47;;;;;;;5.27;4.73;;;16.30;99.90;;;;;;6167671;23;20464;-66
2021/07/01 04:48:12;;;;;;;5.03;4.20;;;16.30;99.90;;;;;;6167317;23;20413;-66
2021/07/01 04:50:38;;;;;;;7.40;4.37;;;16.60;99.90;;;;;;6167679;23;20162;-66
2021/07/01 04:53:03;;;;;;;6.20;4.33;;;16.60;99.90;;;;;;6167565;23;20186;-66
2021/07/01 04:55:29;;;;;;;5.07;4.40;;;16.80;99.90;;;;;;6167651;23;20242;-66
2021/07/01 04:57:55;;;;;;;7.40;4.30;;;16.80;99.90;;;;;;6158440;23;20151;-67
2021/07/01 05:00:20;;;;;;;4.87;4.23;;;16.80;99.90;;;;;;6168321;23;20265;-67
2021/07/01 05:02:46;;;;;;;5.20;3.90;;;16.70;99.90;;;;;;6132417;23;20631;-67
2021/07/01 05:05:11;;;;;;;5.43;4.13;;;16.70;99.90;;;;;;6167657;23;20173;-65
2021/07/01 05:07:44;;;;;;;4.00;3.50;;;16.70;99.90;;;;;;6167841;23;20158;-64
2021/07/01 05:10:11;;;;;;;5.33;3.90;;;16.60;99.90;;;;;;6167396;23;20501;-65
2021/07/01 05:12:37;;;;;;;4.97;4.20;;;16.70;99.90;;;;;;6167403;23;20394;-65
2021/07/01 05:15:04;;;;;;;5.47;3.97;;;16.80;99.90;;;;;;6167534;23;20390;-65
2021/07/01 05:17:30;;;;;;;6.00;4.23;;;16.60;99.90;;;;;;6167948;23;20505;-67
2021/07/01 05:19:56;;;;;;;4.90;4.20;;;16.50;99.90;;;;;;6167340;23;20816;-67
2021/07/01 05:22:22;;;;;;;4.03;3.03;;;16.60;99.90;;;;;;6167438;23;20390;-66
2021/07/01 05:24:48;;;;;;;3.80;3.40;;;16.50;99.90;;;;;;6167318;23;20169;-66
2021/07/01 05:27:14;;;;;;;6.43;3.60;;;16.50;99.90;;;;;;6167269;23;20389;-67
2021/07/01 05:29:39;;;;;;;4.13;3.23;;;16.40;99.90;;;;;;6131430;23;20398;-66
2021/07/01 05:32:05;;;;;;;4.30;3.23;;;16.40;99.90;;;;;;6157493;23;20158;-66
2021/07/01 05:34:31;;;;;;;7.00;4.40;;;16.40;99.90;;;;;;6167198;23;20193;-66
2021/07/01 05:36:56;;;;;;;4.97;3.80;;;16.40;99.90;;;;;;6131661;23;20401;-66
2021/07/01 05:39:22;;;;;;;23.47;8.93;;;16.50;99.90;;;;;;6167675;23;20508;-66
2021/07/01 05:41:47;;;;;;;4.87;3.70;;;16.70;99.90;;;;;;6167604;23;20692;-66
2021/07/01 05:44:13;;;;;;;4.60;3.00;;;16.90;99.90;;;;;;6158085;23;20184;-66
2021/07/01 05:46:39;;;;;;;3.00;2.70;;;17.30;99.90;;;;;;6167243;23;20560;-66
2021/07/01 05:49:04;;;;;;;3.80;2.93;;;16.90;99.90;;;;;;6167309;23;20205;-66
2021/07/01 05:51:31;;;;;;;3.70;3.10;;;16.80;99.90;;;;;;6166784;23;20166;-66
2021/07/01 05:54:09;;;;;;;4.30;3.50;;;16.80;99.90;;;;;;6157304;23;20186;-65
2021/07/01 05:56:37;;;;;;;4.60;3.20;;;16.70;99.90;;;;;;6157057;23;20469;-66
2021/07/01 05:59:08;;;;;;;3.93;3.03;;;16.90;99.90;;;;;;6167143;23;20426;-66
2021/07/01 06:01:35;;;;;;;4.23;3.27;;;17.00;99.90;;;;;;6131589;23;20382;-64
2021/07/01 06:04:06;;;;;;;3.57;2.93;;;17.00;99.90;;;;;;6166743;23;20397;-63
2021/07/01 06:06:36;;;;;;;3.97;2.90;;;17.10;99.90;;;;;;6167173;23;20420;-65
2021/07/01 06:09:03;;;;;;;4.30;3.03;;;16.90;99.90;;;;;;6166806;23;20449;-67
2021/07/01 06:11:32;;;;;;;2.90;1.87;;;16.90;99.90;;;;;;6167436;23;20408;-64
2021/07/01 06:13:57;;;;;;;3.50;2.13;;;16.80;99.90;;;;;;6141120;23;20883;-64
2021/07/01 06:16:25;;;;;;;2.67;2.47;;;16.80;99.90;;;;;;6166914;23;20420;-64
2021/07/01 06:18:52;;;;;;;3.80;2.67;;;16.90;99.90;;;;;;6166642;23;20461;-64
2021/07/01 06:21:18;;;;;;;2.57;2.37;;;16.70;99.90;;;;;;6166896;23;20520;-64
2021/07/01 06:23:46;;;;;;;4.03;2.33;;;16.70;99.90;;;;;;6167161;23;20422;-63
2021/07/01 06:26:13;;;;;;;2.40;1.70;;;17.00;99.90;;;;;;6157465;23;20172;-66
2021/07/01 06:28:40;;;;;;;2.60;2.40;;;17.20;99.90;;;;;;6166833;23;20404;-66
2021/07/01 06:31:07;;;;;;;2.83;2.43;;;17.20;99.90;;;;;;6167107;23;20464;-67
2021/07/01 06:33:35;;;;;;;5.67;2.30;;;17.40;99.90;;;;;;6166981;23;20697;-66
2021/07/01 06:36:01;;;;;;;2.97;2.30;;;17.60;99.90;;;;;;6166977;23;20382;-67
2021/07/01 06:38:29;;;;;;;2.37;1.90;;;17.80;99.90;;;;;;6166737;23;20421;-67
2021/07/01 06:40:56;;;;;;;2.37;1.77;;;17.80;99.90;;;;;;6166839;23;20378;-67
2021/07/01 06:43:24;;;;;;;4.00;2.30;;;17.90;99.90;;;;;;6166643;23;20397;-67
2021/07/01 06:45:50;;;;;;;2.43;1.80;;;18.00;99.90;;;;;;6156188;23;20417;-64
2021/07/01 06:48:16;;;;;;;2.23;1.60;;;17.90;99.90;;;;;;6156290;23;20424;-66
2021/07/01 06:50:43;;;;;;;2.60;1.80;;;18.00;99.90;;;;;;6157012;23;20197;-65
2021/07/01 06:53:12;;;;;;;2.53;2.13;;;18.00;99.90;;;;;;6166402;23;20779;-65
2021/07/01 06:55:37;;;;;;;3.20;1.90;;;18.10;99.90;;;;;;6157217;23;20756;-66
2021/07/01 06:58:05;;;;;;;2.03;1.83;;;18.30;99.90;;;;;;6166174;23;20488;-66
2021/07/01 07:00:31;;;;;;;2.23;1.90;;;18.40;99.90;;;;;;6166844;23;20154;-66
2021/07/01 07:02:57;;;;;;;4.80;3.47;;;18.70;99.90;;;;;;6166688;23;20406;-67
2021/07/01 07:05:22;;;;;;;2.10;1.90;;;18.30;99.90;;;;;;6166588;23;20158;-67
2021/07/01 07:07:49;;;;;;;2.73;1.60;;;18.40;99.90;;;;;;6166678;23;20421;-67
2021/07/01 07:10:17;;;;;;;1.93;1.70;;;18.50;99.90;;;;;;6166462;23;20298;-67
2021/07/01 07:12:46;;;;;;;1.80;1.40;;;18.50;99.90;;;;;;6166589;23;20390;-67
2021/07/01 07:15:28;;;;;;;1.67;1.50;;;18.70;99.90;;;;;;6167256;23;20824;-67
2021/07/01 07:18:00;;;;;;;2.10;1.20;;;18.80;99.90;;;;;;6166863;23;20374;-67
2021/07/01 07:20:29;;;;;;;2.07;1.23;;;18.60;99.90;;;;;;6166822;23;20432;-66
2021/07/01 07:22:56;;;;;;;2.30;1.67;;;18.50;99.90;;;;;;6157041;23;20460;-68
2021/07/01 07:25:22;;;;;;;2.70;1.40;;;18.60;99.90;;;;;;6167284;23;20658;-69
2021/07/01 07:28:17;;;;;;;1.80;1.60;;;18.80;99.90;;;;;;6167219;23;20397;-71
2021/07/01 07:30:43;;;;;;;2.67;1.30;;;19.20;99.90;;;;;;6156189;23;20760;-70
2021/07/01 07:33:10;;;;;;;1.33;1.17;;;19.10;99.90;;;;;;6167058;23;20430;-68
2021/07/01 07:35:37;;;;;;;2.40;1.47;;;19.10;99.90;;;;;;6167304;23;20557;-71
2021/07/01 07:38:07;;;;;;;1.93;1.40;;;19.30;99.90;;;;;;6167406;23;20396;-71
2021/07/01 07:40:33;;;;;;;2.40;2.00;;;19.40;99.90;;;;;;6166940;23;20528;-69
2021/07/01 07:43:03;;;;;;;1.97;1.50;;;19.60;99.90;;;;;;6157141;23;20393;-68
2021/07/01 07:45:29;;;;;;;4.20;1.90;;;19.60;99.90;;;;;;6166362;23;20452;-68
2021/07/01 07:47:54;;;;;;;2.70;1.73;;;19.30;99.90;;;;;;6166185;23;20456;-67
2021/07/01 07:50:20;;;;;;;2.30;1.87;;;19.20;99.90;;;;;;6166297;23;20385;-68
2021/07/01 07:52:49;;;;;;;2.93;2.20;;;19.10;99.90;;;;;;6165607;23;20229;-67
2021/07/01 07:55:20;;;;;;;2.50;2.27;;;19.20;99.90;;;;;;6166411;23;20554;-67
2021/07/01 07:57:50;;;;;;;1.70;1.60;;;18.80;99.90;;;;;;6157007;23;20832;-67
2021/07/01 08:00:17;;;;;;;5.03;2.20;;;18.50;99.90;;;;;;6132455;23;20401;-69
2021/07/01 08:03:05;;;;;;;2.80;2.40;;;18.50;99.90;;;;;;6167573;23;20369;-71
2021/07/01 08:05:31;;;;;;;2.53;2.33;;;18.30;99.90;;;;;;6167550;23;20706;-67
2021/07/01 08:07:58;;;;;;;2.93;2.53;;;18.20;99.90;;;;;;6158248;23;20670;-67
2021/07/01 08:10:29;;;;;;;4.50;3.67;;;18.20;99.90;;;;;;6168398;23;20454;-67
2021/07/01 08:13:01;;;;;;;5.23;4.07;;;18.40;99.90;;;;;;6168762;23;20441;-66
2021/07/01 08:15:28;;;;;;;3.53;3.23;;;18.50;99.90;;;;;;6168052;23;20793;-66
2021/07/01 08:17:54;;;;;;;4.10;3.60;;;18.70;99.90;;;;;;6167828;23;20434;-67
2021/07/01 08:20:22;;;;;;;4.40;3.90;;;18.90;99.90;;;;;;6167972;23;20389;-67
2021/07/01 08:22:50;;;;;;;4.87;4.20;;;19.30;99.90;;;;;;6167941;23;20440;-68
2021/07/01 08:25:17;;;;;;;4.07;3.67;;;19.50;99.90;;;;;;6168342;23;20393;-66
2021/07/01 08:27:45;;;;;;;5.90;5.00;;;19.70;99.90;;;;;;6132248;23;20394;-70
2021/07/01 08:30:13;;;;;;;5.60;4.43;;;19.50;99.90;;;;;;6167832;23;20408;-68
2021/07/01 08:32:39;;;;;;;8.20;6.10;;;19.40;99.90;;;;;;6132330;23;20397;-72
2021/07/01 08:35:06;;;;;;;7.37;6.70;;;19.30;99.90;;;;;;6168002;23;20393;-69
2021/07/01 08:37:33;;;;;;;6.87;5.70;;;19.50;99.90;;;;;;6167960;23;20385;-69
2021/07/01 08:40:00;;;;;;;7.03;6.03;;;19.90;99.90;;;;;;6167812;23;20397;-69
2021/07/01 08:42:34;;;;;;;7.70;6.40;;;19.60;99.90;;;;;;6132195;23;20420;-67
2021/07/01 08:45:18;;;;;;;6.90;6.30;;;19.70;99.90;;;;;;6167880;23;20389;-68
2021/07/01 08:47:44;;;;;;;6.73;5.73;;;19.90;99.90;;;;;;6157976;23;20491;-68
2021/07/01 08:50:16;;;;;;;7.37;6.67;;;20.00;99.90;;;;;;6167664;23;20385;-68
2021/07/01 08:53:00;;;;;;;6.47;5.87;;;20.00;99.90;;;;;;6167287;23;20374;-68
2021/07/01 08:55:28;;;;;;;6.70;6.00;;;19.80;99.90;;;;;;6167860;23;20385;-69
2021/07/01 08:57:56;;;;;;;8.50;7.70;;;19.60;99.90;;;;;;6157856;23;20427;-68
2021/07/01 09:00:23;;;;;;;8.40;7.60;;;19.60;99.90;;;;;;6167627;23;20374;-68
2021/07/01 09:03:08;;;;;;;9.67;7.87;;;19.70;99.90;;;;;;6167533;23;20449;-67
2021/07/01 09:05:37;;;;;;;10.30;8.80;;;19.60;99.90;;;;;;6166959;23;20388;-69
2021/07/01 09:08:11;;;;;;;9.30;7.33;;;19.80;99.90;;;;;;6167904;23;20417;-70
2021/07/01 09:10:38;;;;;;;8.83;7.87;;;19.80;99.90;;;;;;6167634;23;20814;-68
2021/07/01 09:13:10;;;;;;;7.33;6.63;;;20.00;99.90;;;;;;6167578;23;20442;-67
2021/07/01 09:15:36;;;;;;;7.37;6.67;;;20.10;99.90;;;;;;6167730;23;20827;-68
2021/07/01 09:18:03;;;;;;;8.73;7.90;;;20.20;99.90;;;;;;6167993;23;20386;-69
2021/07/01 09:20:36;;;;;;;8.30;7.50;;;20.10;99.90;;;;;;6167348;23;20394;-72
2021/07/01 09:23:03;;;;;;;9.70;7.33;;;20.40;99.90;;;;;;6157905;23;20448;-68
2021/07/01 09:25:29;;;;;;;10.80;8.23;;;20.50;99.90;;;;;;6167816;23;20400;-70
2021/07/01 09:27:56;;;;;;;8.80;7.90;;;20.50;99.90;;;;;;6167392;23;20417;-71
2021/07/01 09:30:28;;;;;;;9.00;8.10;;;20.60;99.90;;;;;;6167607;23;20474;-66
2021/07/01 09:32:56;;;;;;;9.50;8.60;;;20.40;99.90;;;;;;6167845;23;20416;-66
2021/07/01 09:35:24;;;;;;;9.13;8.30;;;20.40;99.90;;;;;;6168384;23;20687;-66
2021/07/01 09:37:50;;;;;;;8.80;7.90;;;20.80;99.90;;;;;;6132058;23;20418;-68
2021/07/01 09:40:18;;;;;;;10.30;9.27;;;20.80;99.90;;;;;;6167881;23;20842;-70
2021/07/01 09:42:49;;;;;;;9.03;8.13;;;21.00;99.90;;;;;;6167462;23;20378;-68
2021/07/01 09:45:15;;;;;;;8.70;7.80;;;21.30;99.90;;;;;;6167317;23;20428;-67
2021/07/01 09:47:45;;;;;;;8.03;7.23;;;21.50;99.90;;;;;;6167203;23;20449;-69
2021/07/01 09:50:11;;;;;;;7.53;6.73;;;21.20;99.90;;;;;;6131479;23;20154;-65
2021/07/01 09:52:42;;;;;;;10.60;8.43;;;21.00;99.90;;;;;;6167734;23;20385;-66
2021/07/01 09:55:12;;;;;;;14.07;12.73;;;21.30;99.90;;;;;;6171059;23;20381;-69
2021/07/01 09:57:52;;;;;;;9.80;8.80;;;21.50;99.90;;;;;;6172779;23;20389;-66
2021/07/01 10:00:18;;;;;;;9.60;8.60;;;21.90;99.90;;;;;;6163958;23;20374;-65
2021/07/01 10:02:44;;;;;;;8.53;7.73;;;22.10;99.90;;;;;;6142021;23;20508;-68
2021/07/01 10:05:28;;;;;;;8.63;7.80;;;22.20;52.30;;;;;;6175373;23;20398;-67
2021/07/01 10:07:56;;;;;;;7.90;6.53;;;21.80;93.00;;;;;;6149294;23;20394;-67
2021/07/01 10:10:22;;;;;;;8.13;7.30;;;21.30;99.90;;;;;;6171391;23;20385;-65
2021/07/01 10:12:56;;;;;;;7.77;7.07;;;21.30;99.90;;;;;;6166883;23;20456;-65
2021/07/01 10:15:26;;;;;;;7.53;6.83;;;21.60;99.90;;;;;;6172274;23;20457;-69
2021/07/01 10:18:12;;;;;;;8.47;7.10;;;21.90;99.90;;;;;;6168332;23;20401;-66
2021/07/01 10:20:38;;;;;;;9.00;8.10;;;21.20;99.90;;;;;;6167453;23;20819;-70
2021/07/01 10:23:19;;;;;;;7.13;6.43;;;21.30;99.90;;;;;;6167259;23;20428;-71
2021/07/01 10:25:47;;;;;;;7.47;6.77;;;21.70;99.90;;;;;;6167883;23;20150;-70
2021/07/01 10:28:21;;;;;;;7.40;6.67;;;21.70;99.90;;;;;;6132286;23;20405;-70
2021/07/01 10:31:13;;;;;;;12.13;10.47;;;22.20;99.90;;;;;;6169420;23;20374;-69
2021/07/01 10:33:43;;;;;;;8.30;6.77;;;22.70;53.40;;;;;;6132066;23;20487;-69
2021/07/01 10:36:18;;;;;;;7.97;7.27;;;22.60;1.00;;;;;;6168606;23;20393;-69
2021/07/01 10:38:52;;;;;;;8.20;7.40;;;22.70;40.20;;;;;;6167261;23;20392;-70
2021/07/01 10:41:31;;;;;;;6.17;5.60;;;23.10;1.00;;;;;;6132090;23;20827;-70
2021/07/01 10:43:58;;;;;;;8.37;6.53;;;22.90;1.00;;;;;;6167153;23;20547;-69
2021/07/01 10:46:45;;;;;;;7.03;6.43;;;23.40;1.00;;;;;;6166640;23;20390;-69
2021/07/01 10:49:12;;;;;;;6.73;6.03;;;23.60;1.00;;;;;;6166560;23;20741;-70
2021/07/01 10:51:51;;;;;;;7.30;6.60;;;23.50;1.00;;;;;;6166783;23;20676;-68
2021/07/01 10:54:24;;;;;;;7.40;6.03;;;23.50;1.00;;;;;;5091420;27;21047;-68
2021/07/01 10:56:54;;;;;;;8.40;6.33;;;23.50;1.00;;;;;;5091524;28;20436;-67
2021/07/01 10:59:20;;;;;;;8.97;6.77;;;23.50;1.00;;;;;;5090969;28;20420;-68
2021/07/01 11:01:48;;;;;;;8.60;7.30;;;23.20;1.00;;;;;;5091595;28;20418;-71
2021/07/01 11:04:16;;;;;;;7.57;6.80;;;23.10;1.00;;;;;;5110246;28;20457;-69
2021/07/01 11:06:43;;;;;;;6.50;5.90;;;22.80;1.00;;;;;;5093374;28;20421;-68
2021/07/01 11:09:13;;;;;;;8.67;6.60;;;23.00;1.00;;;;;;5092309;28;20413;-63
2021/07/01 11:11:40;;;;;;;7.53;6.60;;;22.70;1.00;;;;;;5093636;28;20414;-64
2021/07/01 11:14:11;;;;;;;6.03;5.40;;;22.50;46.70;;;;;;5089715;28;20933;-68
2021/07/01 11:16:45;;;;;;;6.77;5.33;;;22.70;1.00;;;;;;5090872;28;20422;-69
2021/07/01 11:19:18;;;;;;;6.63;5.90;;;21.90;64.30;;;;;;5090571;28;20417;-69
2021/07/01 11:21:54;;;;;;;6.13;5.53;;;22.00;1.00;;;;;;5091307;28;20436;-69
2021/07/01 11:24:25;;;;;;;5.93;5.33;;;22.00;64.00;;;;;;5090863;28;20893;-68
2021/07/01 11:26:54;;;;;;;5.93;5.27;;;21.80;1.00;;;;;;5089817;28;20520;-70
2021/07/01 11:29:35;;;;;;;5.70;5.20;;;21.80;1.00;;;;;;5090505;28;20451;-69
2021/07/01 11:32:02;;;;;;;5.37;4.90;;;21.70;19.90;;;;;;5079570;28;20426;-66
2021/07/01 11:34:41;;;;;;;5.40;4.70;;;22.10;1.00;;;;;;5070469;28;20757;-66
2021/07/01 11:37:07;;;;;;;6.20;5.50;;;21.80;1.00;;;;;;5070943;28;20419;-68
2021/07/01 11:39:33;;;;;;;6.03;5.10;;;21.80;1.00;;;;;;5069117;28;20428;-72
2021/07/01 11:42:04;;;;;;;6.97;4.90;;;22.40;1.00;;;;;;5069566;28;20513;-70
2021/07/01 11:44:35;;;;;;;6.13;5.53;;;22.50;1.00;;;;;;5069052;28;20734;-71
2021/07/01 11:47:04;;;;;;;6.40;5.70;;;23.30;1.00;;;;;;5069011;28;20548;-70
2021/07/01 11:49:32;;;;;;;6.23;5.50;;;23.70;1.00;;;;;;5070019;28;20699;-69
2021/07/01 11:52:01;;;;;;;6.57;5.87;;;23.80;1.00;;;;;;5069822;28;20426;-67
2021/07/01 11:54:27;;;;;;;7.77;7.07;;;23.20;99.90;;;;;;5069995;28;20606;-69
2021/07/01 11:56:55;;;;;;;5.70;5.20;;;23.70;99.90;;;;;;5076510;28;21091;-69
2021/07/01 11:59:29;;;;;;;7.07;6.47;;;24.10;94.80;;;;;;5087007;28;20938;-71
2021/07/01 12:01:57;;;;;;;6.20;5.60;;;24.20;99.90;;;;;;5089540;28;20429;-71
2021/07/01 12:04:33;;;;;;;7.43;6.83;;;24.80;1.00;;;;;;5082754;28;20433;-71
2021/07/01 12:07:05;;;;;;;7.03;5.27;;;24.90;1.00;;;;;;5073057;28;20434;-71
2021/07/01 12:09:33;;;;;;;8.23;7.30;;;24.20;1.00;;;;;;5076143;28;20422;-69
2021/07/01 12:12:04;;;;;;;6.43;5.60;;;24.70;1.00;;;;;;5075756;28;20468;-69
2021/07/01 12:14:38;;;;;;;7.40;5.30;;;24.50;99.90;;;;;;5075931;28;20426;-69
2021/07/01 12:17:04;;;;;;;5.50;4.77;;;23.90;1.00;;;;;;5073009;28;20444;-72
2021/07/01 12:19:48;;;;;;;6.33;5.73;;;23.30;99.90;;;;;;5075482;28;20418;-71
2021/07/01 12:22:42;;;;;;;5.73;5.20;;;23.50;99.90;;;;;;5074360;28;20749;-70
2021/07/01 12:25:32;;;;;;;5.90;5.40;;;24.00;99.90;;;;;;5073799;28;20506;-66
2021/07/01 12:28:18;;;;;;;5.53;5.03;;;24.80;1.00;;;;;;5075545;28;20837;-66
2021/07/01 12:30:56;;;;;;;7.40;5.97;;;24.30;1.00;;;;;;5076252;28;20678;-67
2021/07/01 12:33:40;;;;;;;7.40;6.30;;;24.30;99.90;;;;;;5074680;28;20610;-70
2021/07/01 12:36:09;;;;;;;6.90;6.20;;;24.30;99.90;;;;;;5073758;28;20471;-70
2021/07/01 12:38:36;;;;;;;7.87;7.07;;;24.10;99.90;;;;;;5074594;28;20513;-68
2021/07/01 12:41:08;;;;;;;6.77;6.07;;;24.50;99.90;;;;;;5075336;28;20910;-66
2021/07/01 12:43:47;;;;;;;29.60;22.60;;;24.20;1.00;;;;;;5074335;28;20759;-68
2021/07/01 12:46:40;;;;;;;8.43;7.73;;;24.30;1.00;;;;;;5074075;28;20430;-69
2021/07/01 12:49:06;;;;;;;9.40;7.27;;;24.30;1.00;;;;;;5073020;28;20799;-71
2021/07/01 12:51:42;;;;;;;7.43;6.77;;;24.50;1.00;;;;;;5075090;28;20472;-73